createdAt,value
2023-05-03T00:01:31.782Z,1.27
2023-05-03T00:06:33.544Z,1.10
2023-05-03T00:11:35.202Z,1.10
2023-05-03T00:16:36.931Z,1.10
2023-05-03T00:21:38.673Z,1.08
2023-05-03T00:26:40.278Z,1.30
2023-05-03T00:31:44.587Z,1.25
2023-05-03T00:36:46.279Z,1.35
2023-05-03T00:41:47.916Z,1.45
2023-05-03T00:46:50.033Z,1.38
2023-05-03T00:51:53.416Z,1.17
2023-05-03T00:56:56.745Z,1.30
2023-05-03T01:01:58.543Z,0.90
2023-05-03T01:07:12.243Z,1.20
2023-05-03T01:13:11.094Z,1.10
2023-05-03T01:18:18.660Z,1.10
2023-05-03T01:23:57.334Z,0.93
2023-05-03T01:29:00.353Z,1.30
2023-05-03T01:34:17.028Z,1.05
2023-05-03T01:39:23.343Z,1.20
2023-05-03T01:44:25.800Z,0.90
2023-05-03T01:49:27.396Z,1.35
2023-05-03T01:54:29.054Z,1.05
2023-05-03T01:59:30.746Z,0.95
2023-05-03T02:04:32.478Z,1.77
2023-05-03T02:09:34.119Z,1.02
2023-05-03T02:14:35.862Z,0.93
2023-05-03T02:19:37.465Z,0.98
2023-05-03T02:24:40.128Z,1.10
2023-05-03T02:29:41.811Z,1.23
2023-05-03T02:34:48.966Z,0.90
2023-05-03T02:39:51.090Z,0.75
2023-05-03T02:44:52.700Z,1.00
2023-05-03T02:49:54.276Z,1.00
2023-05-03T02:54:56.042Z,1.00
2023-05-03T02:59:57.668Z,0.88
2023-05-03T03:04:59.436Z,1.10
2023-05-03T03:10:01.404Z,0.98
2023-05-03T03:15:04.030Z,1.05
2023-05-03T03:20:11.606Z,1.00
2023-05-03T03:25:13.320Z,0.70
2023-05-03T03:30:15.371Z,1.17
2023-05-03T03:35:17.245Z,1.02
2023-05-03T03:40:18.920Z,1.05
2023-05-03T03:45:20.568Z,1.35
2023-05-03T03:50:22.208Z,0.90
2023-05-03T03:55:23.781Z,1.00
2023-05-03T04:00:25.597Z,1.05
2023-05-03T04:05:27.292Z,1.05
2023-05-03T04:10:28.902Z,1.38
2023-05-03T04:15:30.567Z,2.30
2023-05-03T04:20:33.134Z,1.85
2023-05-03T04:25:37.160Z,1.70
2023-05-03T04:30:38.767Z,1.00
2023-05-03T04:35:41.465Z,0.82
2023-05-03T04:40:43.185Z,0.98
2023-05-03T04:45:44.748Z,0.90
2023-05-03T04:50:46.484Z,0.75
2023-05-03T04:55:48.032Z,1.00
2023-05-03T05:00:50.347Z,1.02
2023-05-03T05:05:52.054Z,1.05
2023-05-03T05:10:53.665Z,1.20
2023-05-03T05:15:55.845Z,1.10
2023-05-03T05:20:57.473Z,1.20
2023-05-03T05:26:00.664Z,1.00
2023-05-03T05:31:02.325Z,1.17
2023-05-03T05:36:04.673Z,1.50
2023-05-03T05:41:06.663Z,1.00
2023-05-03T05:46:08.822Z,1.30
2023-05-03T05:51:10.466Z,1.30
2023-05-03T05:56:12.049Z,1.20
2023-05-03T06:01:13.726Z,1.25
2023-05-03T06:06:15.337Z,1.13
2023-05-03T06:11:17.498Z,1.00
2023-05-03T06:16:19.328Z,1.30
2023-05-03T06:21:21.857Z,1.33
2023-05-03T06:26:24.666Z,1.30
2023-05-03T06:31:26.502Z,1.40
2023-05-03T06:36:30.385Z,0.93
2023-05-03T06:41:34.637Z,1.30
2023-05-03T06:46:36.279Z,1.08
2023-05-03T06:51:37.970Z,1.30
2023-05-03T06:56:39.527Z,1.20
2023-05-03T07:01:41.180Z,1.20
2023-05-03T07:06:55.466Z,1.40
2023-05-03T07:11:58.198Z,1.13
2023-05-03T07:16:59.820Z,1.23
2023-05-03T07:22:03.380Z,1.55
2023-05-03T07:27:05.542Z,1.65
2023-05-03T07:32:07.229Z,1.33
2023-05-03T07:37:08.805Z,1.40
2023-05-03T07:42:10.502Z,1.13
2023-05-03T07:47:12.218Z,1.50
2023-05-03T07:52:13.821Z,1.50
2023-05-03T07:57:16.446Z,1.50
2023-05-03T08:02:18.174Z,1.75
2023-05-03T08:07:20.156Z,1.50
2023-05-03T08:12:21.710Z,1.40
2023-05-03T08:17:24.114Z,1.73
2023-05-03T08:22:27.073Z,1.38
2023-05-03T08:27:28.703Z,1.88
2023-05-03T08:32:30.648Z,2.03
2023-05-03T08:37:38.324Z,1.80
2023-05-03T08:42:41.761Z,1.80
2023-05-03T08:47:45.575Z,2.03
2023-05-03T08:52:47.496Z,2.40
2023-05-03T08:57:49.111Z,1.95
2023-05-03T09:02:51.857Z,2.38
2023-05-03T09:08:17.170Z,2.38
2023-05-03T09:13:19.109Z,2.30
2023-05-03T09:18:21.313Z,2.42
2023-05-03T09:23:32.438Z,2.90
2023-05-03T09:28:42.430Z,2.28
2023-05-03T09:33:44.402Z,2.80
2023-05-03T09:38:46.039Z,2.78
2023-05-03T09:43:52.303Z,2.60
2023-05-03T09:48:56.999Z,3.15
2023-05-03T09:53:59.556Z,20.17
2023-05-03T09:59:01.141Z,16.80
2023-05-03T10:04:03.955Z,11.85
2023-05-03T10:09:16.583Z,7.18
2023-05-03T10:14:18.979Z,7.30
2023-05-03T10:19:32.362Z,5.75
2023-05-03T10:24:38.486Z,3.72
2023-05-03T10:34:57.896Z,3.75
2023-05-03T10:40:10.293Z,4.13
2023-05-03T10:45:28.726Z,3.92
2023-05-03T10:50:30.402Z,3.67
2023-05-03T10:55:32.757Z,3.83
2023-05-03T11:00:38.510Z,4.45
2023-05-03T11:05:40.149Z,4.07
2023-05-03T11:10:42.076Z,3.58
2023-05-03T11:15:44.795Z,4.35
2023-05-03T11:20:47.973Z,4.80
2023-05-03T11:25:52.074Z,5.68
2023-05-03T11:30:53.927Z,9.85
2023-05-03T11:35:56.678Z,4.53
2023-05-03T11:40:59.882Z,4.60
2023-05-03T11:46:01.729Z,4.45
2023-05-03T11:51:11.069Z,4.20
2023-05-03T11:56:18.960Z,4.55
2023-05-03T12:01:23.829Z,4.20
2023-05-03T12:06:28.031Z,3.95
2023-05-03T12:11:32.040Z,3.60
2023-05-03T12:16:51.830Z,3.55
2023-05-03T12:22:13.347Z,3.55
2023-05-03T12:27:17.306Z,3.35
2023-05-03T12:32:22.976Z,3.08
2023-05-03T12:37:27.611Z,3.00
2023-05-03T12:42:30.883Z,2.88
2023-05-03T12:47:36.428Z,3.00
2023-05-03T12:52:38.958Z,3.22
2023-05-03T12:57:42.539Z,3.33
2023-05-03T13:07:55.979Z,3.13
2023-05-03T13:12:57.858Z,2.92
2023-05-03T13:18:01.764Z,3.08
2023-05-03T13:23:04.344Z,3.00
2023-05-03T13:28:05.973Z,2.92
2023-05-03T13:33:08.379Z,2.97
2023-05-03T13:38:10.085Z,2.92
2023-05-03T13:43:11.982Z,2.75
2023-05-03T13:48:17.695Z,6.00
2023-05-03T13:53:20.994Z,4.75
2023-05-03T13:58:22.788Z,3.33
2023-05-03T14:03:26.103Z,2.80
2023-05-03T14:08:27.835Z,3.50
2023-05-03T14:13:34.869Z,2.88
2023-05-03T14:18:42.318Z,6.22
2023-05-03T14:23:47.346Z,2.97
2023-05-03T14:28:48.960Z,3.10
2023-05-03T14:33:50.687Z,3.28
2023-05-03T14:38:52.352Z,3.10
2023-05-03T14:43:53.949Z,3.03
2023-05-03T14:48:55.783Z,2.80
2023-05-03T14:53:57.487Z,2.75
2023-05-03T14:58:59.498Z,3.85
2023-05-03T15:04:01.267Z,4.50
2023-05-03T15:09:02.959Z,4.90
2023-05-03T15:14:04.635Z,4.80
2023-05-03T15:19:07.526Z,4.88
2023-05-03T15:24:09.260Z,6.10
2023-05-03T15:29:11.315Z,5.28
2023-05-03T15:34:13.146Z,5.03
2023-05-03T15:39:14.869Z,4.88
2023-05-03T15:44:16.490Z,5.03
2023-05-03T15:49:18.122Z,4.68
2023-05-03T15:54:19.730Z,4.88
2023-05-03T15:59:21.397Z,5.38
2023-05-03T16:04:23.019Z,4.47
2023-05-03T16:09:24.701Z,4.55
2023-05-03T16:14:26.512Z,5.03
2023-05-03T16:19:28.097Z,4.13
2023-05-03T16:24:29.816Z,3.90
2023-05-03T16:29:33.746Z,4.70
2023-05-03T16:34:35.796Z,4.50
2023-05-03T16:39:37.685Z,3.97
2023-05-03T16:44:39.300Z,4.55
2023-05-03T16:49:40.930Z,4.50
2023-05-03T16:54:43.482Z,3.70
2023-05-03T16:59:45.192Z,4.22
2023-05-03T17:04:46.807Z,4.60
2023-05-03T17:09:48.416Z,4.50
2023-05-03T17:14:50.059Z,4.00
2023-05-03T17:19:51.705Z,4.25
2023-05-03T17:24:55.273Z,4.95
2023-05-03T17:29:57.482Z,4.53
2023-05-03T17:34:59.169Z,4.70
2023-05-03T17:40:00.949Z,4.70
2023-05-03T17:45:04.276Z,5.15
2023-05-03T17:50:06.635Z,5.22
2023-05-03T17:55:08.813Z,5.20
2023-05-03T18:00:17.043Z,5.57
2023-05-03T18:05:18.848Z,5.78
2023-05-03T18:10:21.077Z,5.95
2023-05-03T18:15:22.831Z,6.10
2023-05-03T18:20:24.828Z,4.20
2023-05-03T18:25:26.742Z,5.63
2023-05-03T18:30:29.440Z,6.00
2023-05-03T18:35:31.341Z,5.80
2023-05-03T18:40:33.030Z,5.90
2023-05-03T18:45:38.853Z,5.97
2023-05-03T18:50:43.424Z,6.07
2023-05-03T18:55:45.774Z,6.53
2023-05-03T19:00:48.589Z,5.88
2023-05-03T19:05:50.923Z,6.07
2023-05-03T19:10:52.980Z,5.75
2023-05-03T19:15:57.462Z,5.85
2023-05-03T19:20:59.610Z,5.60
2023-05-03T19:26:01.975Z,5.93
2023-05-03T19:31:08.031Z,5.97
2023-05-03T19:36:15.075Z,5.85
2023-05-03T19:41:17.252Z,6.07
2023-05-03T19:46:20.933Z,5.75
2023-05-03T19:51:22.792Z,6.00
2023-05-03T19:56:25.260Z,6.25
2023-05-03T20:01:27.302Z,6.15
2023-05-03T20:06:29.205Z,5.63
2023-05-03T20:11:30.911Z,6.38
2023-05-03T20:16:37.470Z,5.50
2023-05-03T20:26:41.258Z,5.95
2023-05-03T20:31:44.348Z,5.68
2023-05-03T20:36:47.260Z,5.72
2023-05-03T20:41:48.924Z,6.22
2023-05-03T20:46:51.249Z,6.32
2023-05-03T20:51:52.922Z,5.65
2023-05-03T20:56:54.505Z,6.00
2023-05-03T21:01:56.481Z,6.60
2023-05-03T21:06:58.061Z,5.85
2023-05-03T21:11:59.688Z,7.07
2023-05-03T21:17:01.558Z,6.70
2023-05-03T21:22:03.180Z,6.22
2023-05-03T21:27:04.789Z,7.10
2023-05-03T21:32:06.913Z,5.78
2023-05-03T21:37:08.515Z,5.78
2023-05-03T21:42:10.111Z,6.55
2023-05-03T21:47:11.692Z,6.28
2023-05-03T21:52:13.812Z,6.20
2023-05-03T21:57:15.408Z,6.28
2023-05-03T22:02:17.449Z,6.38
2023-05-03T22:07:19.069Z,6.07
2023-05-03T22:12:24.307Z,5.82
2023-05-03T22:17:27.252Z,5.70
2023-05-03T22:22:28.869Z,6.00
2023-05-03T22:27:30.582Z,5.80
2023-05-03T22:32:32.465Z,6.03
2023-05-03T22:37:34.614Z,5.55
2023-05-03T22:42:36.391Z,5.25
2023-05-03T22:47:38.071Z,5.53
2023-05-03T22:52:39.782Z,5.80
2023-05-03T22:57:41.832Z,5.60
2023-05-03T23:02:43.530Z,5.93
2023-05-03T23:07:45.227Z,5.53
2023-05-03T23:12:46.900Z,5.05
2023-05-03T23:17:48.555Z,5.82
2023-05-03T23:22:50.430Z,5.50
2023-05-03T23:27:52.076Z,5.20
2023-05-03T23:32:54.087Z,5.40
2023-05-03T23:37:56.293Z,5.97
2023-05-03T23:42:57.899Z,5.82
2023-05-03T23:47:59.486Z,5.97
2023-05-03T23:53:03.578Z,5.13
2023-05-03T23:58:05.279Z,5.72
